Time;durP1;ratioP1;P1;durP2;ratioP2;P2;SDS_P1;SDS_P2;PMS_P1;PMS_P2;Temp;Humidity;BMP_temperature;BMP_pressure;BME280_temperature;BME280_humidity;BME280_pressure;Samples;Min_cycle;Max_cycle;Signal;HPM_P1;HPM_P2
2021/07/06 00:02:16;;;;;;;2.30;1.07;;;18.50;99.90;;;;;;5011897;28;20172;-70
2021/07/06 00:04:41;;;;;;;0.87;0.83;;;18.60;99.90;;;;;;5012140;28;20230;-70
2021/07/06 00:07:07;;;;;;;1.17;1.07;;;18.60;99.90;;;;;;5013277;28;20226;-70
2021/07/06 00:09:32;;;;;;;1.10;1.00;;;18.60;99.90;;;;;;5012055;28;20329;-70
2021/07/06 00:11:58;;;;;;;1.30;1.20;;;18.70;99.90;;;;;;5012161;28;20266;-70
2021/07/06 00:14:23;;;;;;;1.73;1.10;;;18.60;99.90;;;;;;5011709;28;20678;-70
2021/07/06 00:16:49;;;;;;;1.07;0.97;;;18.70;99.90;;;;;;5011900;28;20685;-70
2021/07/06 00:19:15;;;;;;;1.50;1.20;;;18.70;99.90;;;;;;5011711;28;20690;-70
2021/07/06 00:21:40;;;;;;;1.23;0.90;;;18.60;99.90;;;;;;5011650;28;20180;-70
2021/07/06 00:24:06;;;;;;;1.47;0.90;;;18.60;99.90;;;;;;5011604;28;20196;-70
2021/07/06 00:26:32;;;;;;;1.30;0.80;;;18.60;99.90;;;;;;5012865;28;20190;-70
2021/07/06 00:28:57;;;;;;;2.57;0.80;;;18.60;99.90;;;;;;5011521;28;20294;-70
2021/07/06 00:31:24;;;;;;;2.00;1.23;;;18.50;99.90;;;;;;5012816;28;20249;-70
2021/07/06 00:33:51;;;;;;;1.30;0.97;;;18.50;99.90;;;;;;4978940;28;20226;-70
2021/07/06 00:36:17;;;;;;;1.07;0.93;;;18.50;99.90;;;;;;5011509;28;20168;-70
2021/07/06 00:38:42;;;;;;;1.00;0.90;;;18.60;99.90;;;;;;5011299;28;20243;-70
2021/07/06 00:41:08;;;;;;;0.70;0.70;;;18.60;99.90;;;;;;5011503;28;20191;-70
2021/07/06 00:43:36;;;;;;;1.00;0.73;;;18.50;99.90;;;;;;5012606;28;20618;-70
2021/07/06 00:46:02;;;;;;;0.97;0.70;;;18.50;99.90;;;;;;5011426;28;20180;-70
2021/07/06 00:48:27;;;;;;;1.33;0.90;;;18.40;99.90;;;;;;5011356;28;20183;-70
2021/07/06 00:50:53;;;;;;;1.10;1.00;;;18.40;99.90;;;;;;5011076;28;20620;-71
2021/07/06 00:53:19;;;;;;;1.13;0.80;;;18.40;99.90;;;;;;5012336;28;20282;-71
2021/07/06 00:55:45;;;;;;;1.10;1.00;;;18.40;99.90;;;;;;5011164;28;20182;-70
2021/07/06 00:58:11;;;;;;;0.97;0.87;;;18.40;99.90;;;;;;4995012;28;20259;-70
2021/07/06 01:00:37;;;;;;;1.00;0.80;;;18.40;99.90;;;;;;4994773;28;20258;-70
2021/07/06 01:03:04;;;;;;;0.90;0.80;;;18.40;99.90;;;;;;4994699;28;20293;-70
2021/07/06 01:05:29;;;;;;;3.37;0.87;;;18.40;99.90;;;;;;5011170;28;20175;-70
2021/07/06 01:07:55;;;;;;;1.67;0.90;;;18.40;99.90;;;;;;5012334;28;20537;-70
2021/07/06 01:10:20;;;;;;;0.80;0.70;;;18.40;99.90;;;;;;5010823;28;20590;-70
2021/07/06 01:12:46;;;;;;;0.80;0.80;;;18.40;99.90;;;;;;5011040;28;20681;-70
2021/07/06 01:15:14;;;;;;;1.17;1.00;;;18.50;99.90;;;;;;4994795;28;20175;-70
2021/07/06 01:17:40;;;;;;;0.60;0.60;;;18.50;99.90;;;;;;4994900;28;20527;-70
2021/07/06 01:20:17;;;;;;;0.80;0.80;;;18.50;99.90;;;;;;5010664;28;20259;-70
2021/07/06 01:22:43;;;;;;;2.30;0.93;;;18.60;99.90;;;;;;5010833;28;20670;-70
2021/07/06 01:25:09;;;;;;;1.40;0.93;;;18.60;99.90;;;;;;5011022;28;20552;-70
2021/07/06 01:27:35;;;;;;;1.30;0.83;;;18.50;99.90;;;;;;5010877;28;20187;-70
2021/07/06 01:30:01;;;;;;;1.13;0.80;;;18.60;99.90;;;;;;4994468;28;20282;-70
2021/07/06 01:32:26;;;;;;;1.23;0.80;;;18.60;99.90;;;;;;4994540;28;20282;-70
2021/07/06 01:34:52;;;;;;;0.93;0.80;;;18.60;99.90;;;;;;5011978;28;20206;-70
2021/07/06 01:37:18;;;;;;;1.33;0.60;;;18.60;99.90;;;;;;5010931;28;20539;-70
2021/07/06 01:39:47;;;;;;;1.90;0.70;;;18.60;99.90;;;;;;4994404;28;20238;-71
2021/07/06 01:42:17;;;;;;;0.80;0.80;;;18.70;99.90;;;;;;4994488;28;20210;-70
2021/07/06 01:44:43;;;;;;;2.27;0.70;;;18.70;99.90;;;;;;5010816;28;20552;-70
2021/07/06 01:47:08;;;;;;;1.07;0.90;;;18.60;99.90;;;;;;5010789;28;20190;-70
2021/07/06 01:49:35;;;;;;;1.43;0.90;;;18.70;99.90;;;;;;5010372;28;20757;-71
2021/07/06 01:52:00;;;;;;;1.10;0.90;;;18.60;99.90;;;;;;5011855;28;20593;-70
2021/07/06 01:54:26;;;;;;;2.50;0.83;;;18.60;99.90;;;;;;5011810;28;20175;-70
2021/07/06 01:56:52;;;;;;;1.43;0.90;;;18.50;99.90;;;;;;4994496;28;20176;-70
2021/07/06 01:59:17;;;;;;;1.57;0.93;;;18.50;99.90;;;;;;4994005;28;20658;-71
2021/07/06 02:01:43;;;;;;;1.87;0.93;;;18.50;99.90;;;;;;5011843;28;20230;-71
2021/07/06 02:04:09;;;;;;;1.40;0.80;;;18.60;99.90;;;;;;5010290;28;20207;-71
2021/07/06 02:06:34;;;;;;;0.73;0.73;;;18.60;99.90;;;;;;5010551;28;20175;-70
2021/07/06 02:09:00;;;;;;;0.80;0.80;;;18.50;99.90;;;;;;5014232;28;20179;-70
2021/07/06 02:11:26;;;;;;;0.80;0.70;;;18.50;99.90;;;;;;4997859;28;20238;-70
2021/07/06 02:13:51;;;;;;;0.70;0.70;;;18.60;99.90;;;;;;5015669;28;20207;-70
2021/07/06 02:16:17;;;;;;;1.17;0.90;;;18.60;99.90;;;;;;4997857;28;20183;-71
2021/07/06 02:18:43;;;;;;;1.03;0.87;;;18.50;99.90;;;;;;5013836;28;20171;-71
2021/07/06 02:21:09;;;;;;;1.00;0.80;;;18.50;99.90;;;;;;5014070;28;20186;-71
2021/07/06 02:23:34;;;;;;;0.83;0.80;;;18.50;99.90;;;;;;5013640;28;20205;-71
2021/07/06 02:26:02;;;;;;;1.10;0.80;;;18.60;99.90;;;;;;4997645;28;20186;-70
2021/07/06 02:28:28;;;;;;;1.00;0.90;;;18.50;99.90;;;;;;4997795;28;20203;-70
2021/07/06 02:30:53;;;;;;;0.80;0.67;;;18.60;99.90;;;;;;4997447;28;20749;-70
2021/07/06 02:33:19;;;;;;;0.97;0.77;;;18.60;99.90;;;;;;5014873;28;20203;-70
2021/07/06 02:35:45;;;;;;;1.40;0.80;;;18.60;99.90;;;;;;5013734;28;20256;-70
2021/07/06 02:38:11;;;;;;;1.30;1.00;;;18.60;99.90;;;;;;4997449;28;20176;-70
2021/07/06 02:40:36;;;;;;;1.93;0.60;;;18.50;99.90;;;;;;4997178;28;20639;-70
2021/07/06 02:43:02;;;;;;;0.70;0.70;;;18.50;99.90;;;;;;4997326;28;20203;-71
2021/07/06 02:45:29;;;;;;;0.90;0.50;;;18.40;99.90;;;;;;4997332;28;20211;-71
2021/07/06 02:47:54;;;;;;;1.43;0.80;;;18.40;99.90;;;;;;5013752;28;20227;-71
2021/07/06 02:50:21;;;;;;;0.70;0.70;;;18.40;99.90;;;;;;5013188;28;20215;-71
2021/07/06 02:52:46;;;;;;;0.67;0.67;;;18.30;99.90;;;;;;5014534;28;20199;-71
2021/07/06 02:55:12;;;;;;;0.87;0.70;;;18.30;99.90;;;;;;4997162;28;20180;-71
2021/07/06 02:57:39;;;;;;;0.80;0.80;;;18.30;99.90;;;;;;4997148;28;20233;-71
2021/07/06 03:00:21;;;;;;;1.13;0.80;;;18.30;99.90;;;;;;4996978;28;20225;-71
2021/07/06 03:02:48;;;;;;;1.07;0.90;;;18.40;99.90;;;;;;5014260;28;20242;-71
2021/07/06 03:05:14;;;;;;;1.93;1.00;;;18.40;99.90;;;;;;5013221;28;20270;-71
2021/07/06 03:07:40;;;;;;;1.00;0.67;;;18.40;99.90;;;;;;5013222;28;20595;-70
2021/07/06 03:10:08;;;;;;;0.87;0.73;;;18.40;99.90;;;;;;5012774;28;20678;-71
2021/07/06 03:12:33;;;;;;;1.20;0.90;;;18.50;99.90;;;;;;5013244;28;20710;-71
2021/07/06 03:14:59;;;;;;;0.80;0.70;;;18.50;99.90;;;;;;4980380;28;20184;-71
2021/07/06 03:17:24;;;;;;;0.90;0.67;;;18.50;99.90;;;;;;4996724;28;20194;-71
2021/07/06 03:19:50;;;;;;;1.07;0.70;;;18.50;99.90;;;;;;4995082;28;20183;-71
2021/07/06 03:22:15;;;;;;;1.13;0.70;;;18.40;99.90;;;;;;5012867;28;20179;-71
2021/07/06 03:24:41;;;;;;;0.93;0.90;;;18.50;99.90;;;;;;5013025;28;20190;-71
2021/07/06 03:27:06;;;;;;;0.60;0.60;;;18.50;99.90;;;;;;4996546;28;20267;-71
2021/07/06 03:29:33;;;;;;;0.87;0.80;;;18.50;99.90;;;;;;5012417;28;20234;-71
2021/07/06 03:31:58;;;;;;;2.60;1.00;;;18.50;99.90;;;;;;4996489;28;20171;-70
2021/07/06 03:34:24;;;;;;;2.00;0.60;;;18.40;99.90;;;;;;5012643;28;20544;-70
2021/07/06 03:36:49;;;;;;;1.00;0.90;;;18.40;99.90;;;;;;5012627;28;20200;-70
2021/07/06 03:39:15;;;;;;;0.90;0.90;;;18.40;99.90;;;;;;4996247;28;20175;-70
2021/07/06 03:41:41;;;;;;;1.20;1.10;;;18.50;99.90;;;;;;4980482;28;20175;-70
2021/07/06 03:44:06;;;;;;;2.50;0.80;;;18.40;99.90;;;;;;5012700;28;20199;-69
2021/07/06 03:46:32;;;;;;;1.77;0.90;;;18.40;99.90;;;;;;5012822;28;20187;-70
2021/07/06 03:49:02;;;;;;;0.80;0.80;;;18.40;99.90;;;;;;5012646;28;20180;-70
2021/07/06 03:51:28;;;;;;;1.17;0.80;;;18.40;99.90;;;;;;5012539;28;20253;-70
2021/07/06 03:53:54;;;;;;;1.60;0.87;;;18.40;99.90;;;;;;5012344;28;20235;-70
2021/07/06 03:56:19;;;;;;;1.40;0.60;;;18.50;99.90;;;;;;4996215;28;20183;-70
2021/07/06 03:58:45;;;;;;;0.60;0.60;;;18.40;99.90;;;;;;5012246;28;20172;-69
2021/07/06 04:01:11;;;;;;;2.10;0.70;;;18.40;99.90;;;;;;5012533;28;20186;-70
2021/07/06 04:03:36;;;;;;;1.27;0.60;;;18.40;99.90;;;;;;5013400;28;20218;-69
2021/07/06 04:06:02;;;;;;;2.70;0.80;;;18.40;99.90;;;;;;5012466;28;20183;-69
2021/07/06 04:08:27;;;;;;;1.10;0.77;;;18.40;99.90;;;;;;4996075;28;20505;-70
2021/07/06 04:10:53;;;;;;;1.70;1.00;;;18.30;99.90;;;;;;4995908;28;20282;-70
2021/07/06 04:13:18;;;;;;;2.00;0.70;;;18.40;99.90;;;;;;5012127;28;20225;-69
2021/07/06 04:15:44;;;;;;;0.73;0.70;;;18.40;99.90;;;;;;5013436;28;20175;-70
2021/07/06 04:18:09;;;;;;;3.77;0.90;;;18.40;99.90;;;;;;5012419;28;20183;-70
2021/07/06 04:20:35;;;;;;;1.20;0.80;;;18.50;99.90;;;;;;5013165;28;20180;-69
2021/07/06 04:23:00;;;;;;;0.80;0.80;;;18.50;99.90;;;;;;5012184;28;20203;-69
2021/07/06 04:25:26;;;;;;;0.53;0.53;;;18.50;99.90;;;;;;5013316;28;20186;-70
2021/07/06 04:27:52;;;;;;;1.20;0.80;;;18.60;99.90;;;;;;5013701;28;20198;-70
2021/07/06 04:30:18;;;;;;;2.23;0.63;;;18.50;99.90;;;;;;5012650;28;20612;-69
2021/07/06 04:32:45;;;;;;;0.70;0.57;;;18.60;99.90;;;;;;4995607;28;20423;-70
2021/07/06 04:35:10;;;;;;;0.60;0.57;;;18.60;99.90;;;;;;4995821;28;20580;-70
2021/07/06 04:37:36;;;;;;;0.77;0.73;;;18.60;99.90;;;;;;5011887;28;20175;-70
2021/07/06 04:40:02;;;;;;;1.30;0.70;;;18.70;99.90;;;;;;5011418;28;20191;-70
2021/07/06 04:42:28;;;;;;;0.97;0.70;;;18.70;99.90;;;;;;5013421;28;20203;-69
2021/07/06 04:44:53;;;;;;;0.80;0.70;;;18.80;99.90;;;;;;4995412;28;20198;-69
2021/07/06 04:47:19;;;;;;;4.77;0.70;;;18.90;99.90;;;;;;4995417;28;20190;-69
2021/07/06 04:49:44;;;;;;;1.03;0.53;;;19.00;99.90;;;;;;4995166;28;20187;-70
2021/07/06 04:52:10;;;;;;;1.77;0.60;;;19.00;99.90;;;;;;5011533;28;20176;-70
2021/07/06 04:54:36;;;;;;;0.50;0.50;;;19.00;99.90;;;;;;5012676;28;20229;-70
2021/07/06 04:57:01;;;;;;;2.80;0.60;;;19.20;99.90;;;;;;5011486;28;20175;-69
2021/07/06 04:59:27;;;;;;;3.10;0.70;;;19.00;99.90;;;;;;5012307;28;20175;-70
2021/07/06 05:01:52;;;;;;;1.57;0.80;;;19.10;99.90;;;;;;4979240;28;20557;-69
2021/07/06 05:04:18;;;;;;;0.83;0.67;;;19.10;99.90;;;;;;4995501;28;20207;-70
2021/07/06 05:06:43;;;;;;;0.73;0.53;;;19.20;99.90;;;;;;5011373;28;20179;-70
2021/07/06 05:09:09;;;;;;;0.63;0.60;;;19.20;99.90;;;;;;5012133;28;20184;-70
2021/07/06 05:11:34;;;;;;;0.87;0.60;;;19.20;99.90;;;;;;5012331;28;20218;-70
2021/07/06 05:14:01;;;;;;;2.27;0.70;;;19.20;99.90;;;;;;4994986;28;20218;-70
2021/07/06 05:16:26;;;;;;;0.60;0.53;;;19.30;99.90;;;;;;4995723;28;20172;-70
2021/07/06 05:18:52;;;;;;;1.00;0.83;;;19.30;99.90;;;;;;5011357;28;20172;-70
2021/07/06 05:21:18;;;;;;;0.70;0.53;;;19.30;99.90;;;;;;5012578;28;20548;-70
2021/07/06 05:23:44;;;;;;;0.70;0.50;;;19.40;99.90;;;;;;5012426;28;20282;-70
2021/07/06 05:26:09;;;;;;;1.17;0.70;;;19.40;99.90;;;;;;4994817;28;20203;-70
2021/07/06 05:28:35;;;;;;;0.70;0.70;;;19.50;99.90;;;;;;4994704;28;20203;-69
2021/07/06 05:31:03;;;;;;;0.60;0.60;;;19.50;99.90;;;;;;4994822;28;20210;-70
2021/07/06 05:33:28;;;;;;;0.73;0.70;;;19.50;99.90;;;;;;5011110;28;20249;-69
2021/07/06 05:35:54;;;;;;;1.90;0.53;;;19.50;99.90;;;;;;5012323;28;20651;-70
2021/07/06 05:38:19;;;;;;;0.60;0.60;;;19.60;99.90;;;;;;5012251;28;20718;-70
2021/07/06 05:40:45;;;;;;;0.60;0.60;;;19.70;99.90;;;;;;5010735;28;20203;-70
2021/07/06 05:43:10;;;;;;;2.37;0.67;;;19.60;99.90;;;;;;4980857;28;20203;-69
2021/07/06 05:45:36;;;;;;;2.33;0.70;;;19.60;99.90;;;;;;4998663;28;20189;-70
2021/07/06 05:48:02;;;;;;;0.73;0.70;;;19.60;99.90;;;;;;4998665;28;20693;-70
2021/07/06 05:50:28;;;;;;;1.90;0.73;;;19.70;99.90;;;;;;5014392;28;20588;-70
2021/07/06 05:52:53;;;;;;;1.10;0.70;;;19.60;99.90;;;;;;4998509;28;20636;-70
2021/07/06 05:55:19;;;;;;;2.23;0.60;;;19.70;99.90;;;;;;5014844;28;20558;-70
2021/07/06 05:57:44;;;;;;;1.10;0.80;;;19.80;99.90;;;;;;5014698;28;20664;-70
2021/07/06 06:00:12;;;;;;;1.30;0.80;;;19.80;99.90;;;;;;4998138;28;20176;-70
2021/07/06 06:02:38;;;;;;;1.70;0.60;;;19.80;99.90;;;;;;4982109;28;20253;-70
2021/07/06 06:05:07;;;;;;;1.10;0.90;;;19.80;99.90;;;;;;5014566;28;20191;-70
2021/07/06 06:07:39;;;;;;;0.70;0.50;;;19.80;99.90;;;;;;4998213;28;20195;-70
2021/07/06 06:10:06;;;;;;;1.23;0.63;;;19.90;99.90;;;;;;4997693;28;20294;-70
2021/07/06 06:12:32;;;;;;;1.13;0.60;;;19.90;99.90;;;;;;5014213;28;20671;-70
2021/07/06 06:14:57;;;;;;;1.00;0.70;;;20.00;99.90;;;;;;5014293;28;20176;-70
2021/07/06 06:17:23;;;;;;;0.93;0.70;;;20.10;99.90;;;;;;4997887;28;20339;-70
2021/07/06 06:19:48;;;;;;;1.00;0.80;;;20.10;99.90;;;;;;5015215;28;20587;-70
2021/07/06 06:22:14;;;;;;;3.63;0.70;;;20.20;99.90;;;;;;5014043;28;20665;-72
2021/07/06 06:24:39;;;;;;;1.60;0.83;;;20.10;99.90;;;;;;4997770;28;20172;-70
2021/07/06 06:27:05;;;;;;;1.50;0.47;;;20.20;99.90;;;;;;5014096;28;20183;-70
2021/07/06 06:29:31;;;;;;;1.17;0.70;;;20.20;99.90;;;;;;5013756;28;20180;-70
2021/07/06 06:31:56;;;;;;;1.43;0.90;;;20.10;99.90;;;;;;5013990;28;20258;-70
2021/07/06 06:34:22;;;;;;;0.80;0.70;;;20.10;99.90;;;;;;5013879;28;20202;-70
2021/07/06 06:36:47;;;;;;;0.90;0.70;;;20.00;99.90;;;;;;5014006;28;20271;-70
2021/07/06 06:39:13;;;;;;;1.47;0.90;;;20.00;99.90;;;;;;4997338;28;20251;-70
2021/07/06 06:41:38;;;;;;;2.30;0.80;;;19.90;99.90;;;;;;5015177;28;20215;-69
2021/07/06 06:44:04;;;;;;;2.30;0.90;;;20.00;99.90;;;;;;4997560;28;20199;-70
2021/07/06 06:46:30;;;;;;;2.93;0.80;;;19.90;99.90;;;;;;5013889;28;20180;-70
2021/07/06 06:49:00;;;;;;;1.00;0.80;;;19.90;99.90;;;;;;4997235;28;20768;-70
2021/07/06 06:51:25;;;;;;;0.70;0.60;;;19.90;99.90;;;;;;5013759;28;20200;-70
2021/07/06 06:53:51;;;;;;;1.90;0.90;;;19.90;99.90;;;;;;5013499;28;20243;-70
2021/07/06 06:56:16;;;;;;;1.23;0.80;;;19.90;99.90;;;;;;5013546;28;20187;-70
2021/07/06 06:58:44;;;;;;;0.63;0.60;;;20.00;99.90;;;;;;5013461;28;20180;-70
2021/07/06 07:01:09;;;;;;;1.10;0.70;;;20.00;99.90;;;;;;5013648;28;20171;-70
2021/07/06 07:03:35;;;;;;;2.73;0.90;;;19.90;99.90;;;;;;5013383;28;20583;-70
2021/07/06 07:06:00;;;;;;;1.20;0.80;;;20.10;99.90;;;;;;5014487;28;20553;-70
2021/07/06 07:08:26;;;;;;;0.70;0.70;;;20.00;99.90;;;;;;5013285;28;20665;-70
2021/07/06 07:10:52;;;;;;;1.30;0.90;;;20.00;99.90;;;;;;5013167;28;20203;-70
2021/07/06 07:13:17;;;;;;;2.13;0.70;;;20.00;99.90;;;;;;5013290;28;20195;-70
2021/07/06 07:15:43;;;;;;;2.40;0.73;;;20.00;99.90;;;;;;4996992;28;20172;-70
2021/07/06 07:18:09;;;;;;;0.60;0.60;;;19.90;99.90;;;;;;5013290;28;20213;-70
2021/07/06 07:20:34;;;;;;;1.13;0.70;;;19.90;99.90;;;;;;5012849;28;20655;-70
2021/07/06 07:23:01;;;;;;;1.27;0.57;;;19.80;99.90;;;;;;5013045;28;20361;-70
2021/07/06 07:25:26;;;;;;;0.80;0.60;;;19.70;99.90;;;;;;5013172;28;20639;-70
2021/07/06 07:27:52;;;;;;;1.13;0.40;;;19.70;99.90;;;;;;5014652;28;20178;-70
2021/07/06 07:30:19;;;;;;;0.80;0.53;;;19.50;99.90;;;;;;4996724;28;20195;-70
2021/07/06 07:32:45;;;;;;;0.47;0.40;;;19.50;99.90;;;;;;4996966;28;20198;-69
2021/07/06 07:35:11;;;;;;;1.60;0.60;;;19.40;99.90;;;;;;5012829;28;20172;-70
2021/07/06 07:37:36;;;;;;;1.30;0.50;;;19.40;99.90;;;;;;5012830;28;20179;-70
2021/07/06 07:40:03;;;;;;;1.30;0.67;;;19.30;99.90;;;;;;5012638;28;20176;-70
2021/07/06 07:42:29;;;;;;;1.37;0.50;;;19.20;99.90;;;;;;5014053;28;20734;-70
2021/07/06 07:44:54;;;;;;;0.60;0.60;;;19.20;99.90;;;;;;5014168;28;20187;-69
2021/07/06 07:47:20;;;;;;;1.07;0.50;;;19.10;99.90;;;;;;5013053;28;20176;-70
2021/07/06 07:49:45;;;;;;;2.33;0.50;;;19.10;99.90;;;;;;4996238;28;20172;-69
2021/07/06 07:52:11;;;;;;;0.90;0.50;;;19.00;99.90;;;;;;5012791;28;20592;-69
2021/07/06 07:54:36;;;;;;;1.40;0.60;;;19.00;99.90;;;;;;5012818;28;20172;-69
2021/07/06 07:57:03;;;;;;;1.37;0.57;;;18.80;99.90;;;;;;5012934;28;20603;-69
2021/07/06 07:59:30;;;;;;;1.00;0.50;;;18.80;99.90;;;;;;5013619;28;20172;-69
2021/07/06 08:01:57;;;;;;;0.40;0.40;;;18.80;99.90;;;;;;4996221;28;20719;-70
2021/07/06 08:04:22;;;;;;;0.50;0.50;;;18.70;99.90;;;;;;5012000;28;20211;-70
2021/07/06 08:06:48;;;;;;;0.67;0.50;;;18.80;99.90;;;;;;5012344;28;20198;-70
2021/07/06 08:09:13;;;;;;;0.87;0.40;;;18.70;99.90;;;;;;5012170;28;20578;-70
2021/07/06 08:11:39;;;;;;;1.50;0.80;;;18.60;99.90;;;;;;5013428;28;20250;-70
2021/07/06 08:14:04;;;;;;;0.80;0.60;;;18.60;99.90;;;;;;5012123;28;20214;-70
2021/07/06 08:16:30;;;;;;;1.30;0.67;;;18.70;99.90;;;;;;4995671;28;20171;-70
2021/07/06 08:18:55;;;;;;;0.30;0.30;;;18.80;99.90;;;;;;4995337;28;20191;-70
2021/07/06 08:21:21;;;;;;;0.97;0.50;;;18.70;99.90;;;;;;5012171;28;20186;-70
2021/07/06 08:23:47;;;;;;;1.90;0.40;;;18.90;99.90;;;;;;5013312;28;20218;-70
2021/07/06 08:26:12;;;;;;;1.37;0.60;;;18.90;99.90;;;;;;4995756;28;20194;-70
2021/07/06 08:28:38;;;;;;;0.70;0.50;;;18.90;99.90;;;;;;5011756;28;20176;-70
2021/07/06 08:31:03;;;;;;;0.80;0.40;;;18.90;99.90;;;;;;5012974;28;20392;-70
2021/07/06 08:33:29;;;;;;;0.87;0.60;;;19.10;99.90;;;;;;5012949;28;20679;-70
2021/07/06 08:35:54;;;;;;;1.37;0.73;;;19.10;99.90;;;;;;4995582;28;20223;-70
2021/07/06 08:38:20;;;;;;;0.43;0.40;;;19.20;99.90;;;;;;5011693;28;20183;-70
2021/07/06 08:40:49;;;;;;;1.27;0.70;;;19.20;99.90;;;;;;5011688;28;20187;-70
2021/07/06 08:43:15;;;;;;;0.90;0.57;;;19.20;99.90;;;;;;4995602;28;20203;-70
2021/07/06 08:45:41;;;;;;;0.80;0.50;;;19.30;99.90;;;;;;5012983;28;20682;-70
2021/07/06 08:48:07;;;;;;;1.20;0.70;;;19.30;99.90;;;;;;5011712;28;20554;-70
2021/07/06 08:50:32;;;;;;;1.00;0.67;;;19.30;99.90;;;;;;4995157;28;20301;-70
2021/07/06 08:52:58;;;;;;;0.67;0.60;;;19.30;99.90;;;;;;4995378;28;20195;-70
2021/07/06 08:55:24;;;;;;;0.80;0.70;;;19.30;99.90;;;;;;5013460;28;20183;-70
2021/07/06 08:57:52;;;;;;;0.77;0.50;;;19.40;99.90;;;;;;4995437;28;20196;-70
2021/07/06 09:00:17;;;;;;;2.60;0.60;;;19.40;99.90;;;;;;4995490;28;20548;-70
2021/07/06 09:03:04;;;;;;;0.50;0.43;;;19.40;99.90;;;;;;5011407;28;20207;-70
2021/07/06 09:05:30;;;;;;;1.20;0.90;;;19.40;99.90;;;;;;5011631;28;20176;-71
2021/07/06 09:07:55;;;;;;;1.33;0.60;;;19.40;99.90;;;;;;4995041;28;20184;-70
2021/07/06 09:10:22;;;;;;;1.40;0.70;;;19.30;99.90;;;;;;5010974;28;20199;-71
2021/07/06 09:12:48;;;;;;;1.00;0.60;;;19.40;99.90;;;;;;5011231;28;20191;-70
2021/07/06 09:15:22;;;;;;;0.90;0.50;;;19.40;99.90;;;;;;4994783;28;20226;-70
2021/07/06 09:18:07;;;;;;;0.70;0.70;;;19.50;99.90;;;;;;5011343;28;20167;-70
2021/07/06 09:20:33;;;;;;;1.53;0.70;;;19.60;99.90;;;;;;5010982;28;20171;-70
2021/07/06 09:23:18;;;;;;;1.00;0.63;;;19.70;99.90;;;;;;4994895;28;20278;-70
2021/07/06 09:25:44;;;;;;;0.80;0.70;;;19.80;99.90;;;;;;4994775;28;20189;-70
2021/07/06 09:28:23;;;;;;;2.40;0.70;;;19.80;99.90;;;;;;5011270;28;20172;-70
2021/07/06 09:30:48;;;;;;;0.60;0.57;;;19.80;99.90;;;;;;5012103;28;20203;-70
2021/07/06 09:33:26;;;;;;;0.93;0.70;;;19.90;99.90;;;;;;5010927;28;20708;-70
2021/07/06 09:35:51;;;;;;;0.87;0.80;;;20.00;99.90;;;;;;5011327;28;20530;-71
2021/07/06 09:38:17;;;;;;;2.53;0.77;;;20.00;99.90;;;;;;5012070;28;20178;-70
2021/07/06 09:40:43;;;;;;;1.80;1.00;;;20.00;99.90;;;;;;5010906;28;20176;-70
2021/07/06 09:43:27;;;;;;;1.80;1.00;;;20.10;99.90;;;;;;4994814;28;20200;-70
2021/07/06 09:45:58;;;;;;;1.20;0.60;;;20.20;99.90;;;;;;5011119;28;20192;-70
2021/07/06 09:48:23;;;;;;;1.50;0.63;;;20.20;99.90;;;;;;5012473;28;20610;-70
2021/07/06 09:50:49;;;;;;;2.93;0.90;;;20.30;99.90;;;;;;4994578;28;20286;-70
2021/07/06 09:53:32;;;;;;;1.60;0.70;;;20.40;99.90;;;;;;5010958;28;20191;-70
2021/07/06 09:55:58;;;;;;;0.77;0.57;;;20.60;99.90;;;;;;5012262;28;20211;-70
2021/07/06 09:58:23;;;;;;;0.83;0.60;;;20.60;99.90;;;;;;5012072;28;20204;-70
2021/07/06 10:00:51;;;;;;;1.23;0.70;;;20.70;99.90;;;;;;4994478;28;20184;-70
2021/07/06 10:03:18;;;;;;;0.73;0.53;;;20.70;99.90;;;;;;5011185;28;20211;-71
2021/07/06 10:05:44;;;;;;;0.70;0.60;;;20.80;99.90;;;;;;4978644;28;20654;-70
2021/07/06 10:08:10;;;;;;;1.00;0.70;;;20.90;99.90;;;;;;4994801;28;20179;-70
2021/07/06 10:10:36;;;;;;;0.40;0.40;;;21.00;99.90;;;;;;5011790;28;20199;-70
2021/07/06 10:13:01;;;;;;;1.77;0.57;;;21.10;99.90;;;;;;4994456;28;20192;-70
2021/07/06 10:15:27;;;;;;;0.60;0.60;;;21.20;99.90;;;;;;4994608;28;20172;-70
2021/07/06 10:17:53;;;;;;;1.57;0.70;;;21.20;99.90;;;;;;5010734;28;20172;-70
2021/07/06 10:20:25;;;;;;;0.60;0.50;;;21.20;99.90;;;;;;5010814;28;20175;-70
2021/07/06 10:23:00;;;;;;;1.80;0.60;;;21.20;99.90;;;;;;4995129;28;20563;-70
2021/07/06 10:25:28;;;;;;;0.50;0.50;;;21.30;99.90;;;;;;5010694;28;20317;-70
2021/07/06 10:27:58;;;;;;;1.23;0.50;;;21.50;99.90;;;;;;4978723;28;20179;-70
2021/07/06 10:30:27;;;;;;;2.20;0.60;;;21.60;99.90;;;;;;5014124;28;20660;-70
2021/07/06 10:32:54;;;;;;;1.37;0.50;;;21.70;99.90;;;;;;4998088;28;20192;-70
2021/07/06 10:35:41;;;;;;;0.50;0.40;;;21.80;99.90;;;;;;4998119;28;20206;-70
2021/07/06 10:38:41;;;;;;;0.40;0.40;;;21.80;99.90;;;;;;5015190;28;20206;-70
2021/07/06 10:41:14;;;;;;;0.67;0.47;;;21.80;99.90;;;;;;5003032;28;20563;-71
2021/07/06 10:43:42;;;;;;;1.13;0.60;;;21.70;99.90;;;;;;5015278;28;20203;-70
2021/07/06 10:46:20;;;;;;;1.40;0.50;;;21.70;99.90;;;;;;5015391;28;20194;-70
2021/07/06 10:48:46;;;;;;;1.17;0.70;;;21.50;99.90;;;;;;5013980;28;20175;-70
2021/07/06 10:51:34;;;;;;;1.30;0.40;;;21.50;99.90;;;;;;5013803;28;20199;-70
2021/07/06 10:54:27;;;;;;;1.03;0.40;;;21.50;99.90;;;;;;5014998;28;20191;-70
2021/07/06 10:56:57;;;;;;;0.57;0.57;;;21.50;99.90;;;;;;5013912;28;20179;-70
2021/07/06 10:59:35;;;;;;;0.40;0.37;;;21.50;99.90;;;;;;5013581;28;20164;-70
2021/07/06 11:02:05;;;;;;;0.67;0.30;;;21.50;99.90;;;;;;5013868;28;20222;-70
2021/07/06 11:04:41;;;;;;;1.43;0.50;;;21.50;99.90;;;;;;4997941;28;20543;-71
2021/07/06 11:07:10;;;;;;;0.77;0.40;;;21.50;99.90;;;;;;5014606;28;20222;-71
2021/07/06 11:09:35;;;;;;;0.70;0.50;;;21.70;99.90;;;;;;5013049;28;20191;-71
2021/07/06 11:12:24;;;;;;;0.60;0.43;;;21.80;99.90;;;;;;5014216;28;20207;-71
2021/07/06 11:14:51;;;;;;;1.60;0.50;;;21.80;99.90;;;;;;5013085;28;20172;-71
2021/07/06 11:17:46;;;;;;;0.60;0.40;;;21.80;99.90;;;;;;4996984;28;20247;-71
2021/07/06 11:20:13;;;;;;;0.47;0.40;;;21.80;99.90;;;;;;5008413;28;20275;-71
2021/07/06 11:22:54;;;;;;;0.93;0.43;;;22.00;99.90;;;;;;5012895;28;20196;-71
2021/07/06 11:25:28;;;;;;;0.97;0.57;;;22.10;99.90;;;;;;4997858;28;20179;-71
2021/07/06 11:28:13;;;;;;;0.50;0.40;;;22.50;99.90;;;;;;5012896;28;20678;-71
2021/07/06 11:30:50;;;;;;;0.60;0.40;;;22.60;99.90;;;;;;5013602;28;20294;-71
2021/07/06 11:33:17;;;;;;;0.60;0.47;;;22.70;99.90;;;;;;4996925;28;20683;-71
2021/07/06 11:35:46;;;;;;;1.20;0.37;;;22.80;99.90;;;;;;4996330;28;20254;-71
2021/07/06 11:38:19;;;;;;;1.70;0.40;;;22.90;99.90;;;;;;5012650;28;20583;-71
2021/07/06 11:40:46;;;;;;;1.90;0.40;;;23.00;99.90;;;;;;5012544;28;20192;-71
2021/07/06 11:43:16;;;;;;;0.63;0.50;;;23.00;99.90;;;;;;5013625;28;20675;-71
2021/07/06 11:45:41;;;;;;;0.40;0.27;;;23.00;99.90;;;;;;4996288;28;20578;-71
2021/07/06 11:48:14;;;;;;;0.60;0.60;;;23.00;99.90;;;;;;4996113;28;20188;-71
2021/07/06 11:50:42;;;;;;;1.53;0.57;;;22.80;99.90;;;;;;5012163;28;20686;-71
2021/07/06 11:53:08;;;;;;;0.70;0.30;;;23.00;99.90;;;;;;5012367;28;20199;-71
2021/07/06 11:55:34;;;;;;;0.40;0.40;;;23.00;99.90;;;;;;5013797;28;20175;-71
2021/07/06 11:58:00;;;;;;;0.80;0.40;;;23.00;99.90;;;;;;4996055;28;20267;-71
2021/07/06 12:00:28;;;;;;;0.40;0.40;;;23.20;99.90;;;;;;4995826;28;20262;-71
2021/07/06 12:03:12;;;;;;;0.40;0.30;;;23.40;99.90;;;;;;4995886;28;20211;-71
2021/07/06 12:05:38;;;;;;;1.23;0.50;;;23.40;99.90;;;;;;5012170;28;20179;-71
2021/07/06 12:08:16;;;;;;;1.10;0.60;;;23.40;99.90;;;;;;5012067;28;20608;-71
2021/07/06 12:10:52;;;;;;;0.37;0.37;;;23.60;99.90;;;;;;5012993;28;20295;-71
2021/07/06 12:13:17;;;;;;;0.60;0.30;;;23.50;99.90;;;;;;4995893;28;20242;-71
2021/07/06 12:15:46;;;;;;;1.07;0.40;;;23.50;99.90;;;;;;4979418;28;20663;-71
2021/07/06 12:18:11;;;;;;;1.30;0.30;;;23.60;99.90;;;;;;5011905;28;20179;-71
2021/07/06 12:20:37;;;;;;;0.83;0.40;;;23.50;99.90;;;;;;5011493;28;20182;-71
2021/07/06 12:23:02;;;;;;;0.40;0.40;;;23.40;99.90;;;;;;5011844;28;20282;-71
2021/07/06 12:25:28;;;;;;;0.90;0.50;;;23.60;99.90;;;;;;5011832;28;20211;-71
2021/07/06 12:27:53;;;;;;;0.43;0.40;;;23.70;99.90;;;;;;4995432;28;20188;-71
2021/07/06 12:30:19;;;;;;;0.60;0.50;;;23.80;99.90;;;;;;4995142;28;20744;-71
2021/07/06 12:32:45;;;;;;;0.67;0.40;;;23.80;99.90;;;;;;5012832;28;20759;-71
2021/07/06 12:35:11;;;;;;;0.20;0.20;;;23.90;99.90;;;;;;4995152;28;20206;-71
2021/07/06 12:37:36;;;;;;;2.57;0.43;;;23.90;99.90;;;;;;5012751;28;20187;-71
2021/07/06 12:40:05;;;;;;;0.47;0.30;;;23.90;99.90;;;;;;5011956;28;20560;-71
2021/07/06 12:42:36;;;;;;;0.37;0.30;;;24.00;99.90;;;;;;5011575;28;20200;-71
2021/07/06 12:45:06;;;;;;;0.83;0.40;;;23.80;99.90;;;;;;4995564;28;20263;-71
2021/07/06 12:47:41;;;;;;;1.10;0.60;;;23.70;99.90;;;;;;5011562;28;20175;-71
2021/07/06 12:50:23;;;;;;;1.20;0.40;;;23.80;99.90;;;;;;4995706;28;20199;-71